Time;durP1;ratioP1;P1;durP2;ratioP2;P2;SDS_P1;SDS_P2;PMS_P1;PMS_P2;Temp;Humidity;BMP_temperature;BMP_pressure;BME280_temperature;BME280_humidity;BME280_pressure;Samples;Min_cycle;Max_cycle;Signal;HPM_P1;HPM_P2
2023/07/18 00:01:15;;;;;;;12.63;4.10;;;14.10;89.90;;;;;;5052353;28;20032;-67
2023/07/18 00:03:41;;;;;;;14.00;4.40;;;14.10;89.90;;;;;;5031309;28;20041;-67
2023/07/18 00:06:08;;;;;;;16.43;4.17;;;14.00;90.00;;;;;;5049637;28;20414;-67
2023/07/18 00:08:33;;;;;;;14.20;4.20;;;14.00;90.00;;;;;;5037183;28;20124;-67
2023/07/18 00:11:00;;;;;;;12.67;3.93;;;14.00;90.30;;;;;;5041513;28;20383;-67
2023/07/18 00:13:25;;;;;;;16.13;4.13;;;14.00;90.20;;;;;;5045334;28;20055;-67
2023/07/18 00:15:51;;;;;;;11.47;3.60;;;14.00;90.30;;;;;;5032895;28;20647;-67
2023/07/18 00:18:17;;;;;;;11.80;3.50;;;14.00;90.30;;;;;;5046874;28;20071;-67
2023/07/18 00:20:42;;;;;;;13.13;3.77;;;13.90;90.30;;;;;;5023247;28;20052;-67
2023/07/18 00:23:10;;;;;;;12.57;3.57;;;13.90;90.70;;;;;;5049825;28;20078;-67
2023/07/18 00:25:36;;;;;;;13.83;3.87;;;13.90;90.70;;;;;;5029913;28;20119;-67
2023/07/18 00:28:03;;;;;;;15.50;3.10;;;13.90;90.90;;;;;;5041366;28;20363;-67
2023/07/18 00:30:29;;;;;;;14.17;3.60;;;13.90;90.90;;;;;;5046802;28;20307;-67
2023/07/18 00:32:56;;;;;;;13.07;4.10;;;13.90;91.10;;;;;;5054039;28;20362;-67
2023/07/18 00:35:22;;;;;;;13.90;3.70;;;13.90;91.20;;;;;;5046767;28;20642;-67
2023/07/18 00:37:49;;;;;;;17.07;4.50;;;13.90;91.40;;;;;;5027917;28;20299;-67
2023/07/18 00:40:15;;;;;;;13.10;3.80;;;13.80;91.50;;;;;;5041707;28;20632;-67
2023/07/18 00:42:45;;;;;;;12.80;3.87;;;13.90;92.20;;;;;;5023441;28;20291;-67
2023/07/18 00:45:11;;;;;;;14.83;3.83;;;13.80;92.10;;;;;;5043469;28;20048;-67
2023/07/18 00:47:40;;;;;;;13.50;3.77;;;13.80;92.30;;;;;;5041703;28;20335;-67
2023/07/18 00:50:20;;;;;;;16.47;5.13;;;13.80;92.30;;;;;;5049105;28;20660;-67
2023/07/18 00:52:51;;;;;;;12.60;3.17;;;13.80;92.50;;;;;;5052334;28;20267;-67
2023/07/18 00:55:17;;;;;;;14.33;3.67;;;13.70;92.40;;;;;;5034800;28;20303;-67
2023/07/18 00:57:45;;;;;;;11.43;3.30;;;13.70;92.60;;;;;;5048924;28;20292;-67
2023/07/18 01:00:13;;;;;;;15.00;3.40;;;13.60;92.40;;;;;;5044237;28;20361;-67
2023/07/18 01:02:44;;;;;;;13.43;3.53;;;13.60;92.30;;;;;;5047367;28;20841;-67
2023/07/18 01:05:10;;;;;;;12.07;3.50;;;13.50;92.40;;;;;;5044714;28;20644;-67
2023/07/18 01:07:40;;;;;;;14.33;3.70;;;13.50;92.40;;;;;;5026610;28;20279;-67
2023/07/18 01:10:23;;;;;;;12.93;3.40;;;13.50;92.50;;;;;;5024018;28;20523;-67
2023/07/18 01:12:53;;;;;;;14.93;3.43;;;13.40;92.40;;;;;;5042271;28;20279;-67
2023/07/18 01:15:20;;;;;;;11.83;3.73;;;13.40;92.60;;;;;;5058390;28;20302;-67
2023/07/18 01:17:47;;;;;;;13.43;4.20;;;13.30;92.70;;;;;;5034359;28;20283;-67
2023/07/18 01:20:18;;;;;;;12.70;3.77;;;13.30;92.70;;;;;;5024359;28;20287;-67
2023/07/18 01:22:52;;;;;;;16.73;4.57;;;13.30;92.80;;;;;;5046909;28;20349;-67
2023/07/18 01:25:19;;;;;;;10.73;3.80;;;13.30;92.90;;;;;;5050599;28;20335;-67
2023/07/18 01:27:49;;;;;;;16.23;3.77;;;13.30;92.90;;;;;;5047645;28;20279;-67
2023/07/18 01:30:17;;;;;;;16.17;4.27;;;13.30;93.10;;;;;;5047372;28;20362;-67
2023/07/18 01:32:44;;;;;;;16.57;3.57;;;13.30;93.30;;;;;;5038157;28;20279;-67
2023/07/18 01:35:10;;;;;;;15.10;3.50;;;13.30;93.50;;;;;;5043581;28;20630;-67
2023/07/18 01:37:37;;;;;;;11.47;3.63;;;13.30;93.40;;;;;;5045977;28;20374;-67
2023/07/18 01:40:05;;;;;;;16.77;3.57;;;13.30;93.40;;;;;;5037407;28;20346;-67
2023/07/18 01:42:32;;;;;;;11.83;3.30;;;13.30;93.20;;;;;;5044065;28;20357;-67
2023/07/18 01:44:58;;;;;;;17.60;4.43;;;13.30;93.40;;;;;;5039246;28;20298;-67
2023/07/18 01:47:23;;;;;;;16.53;4.30;;;13.30;93.50;;;;;;5022408;28;20283;-67
2023/07/18 01:49:49;;;;;;;12.43;3.57;;;13.30;93.50;;;;;;5046166;28;20094;-67
2023/07/18 01:52:15;;;;;;;10.03;3.60;;;13.30;93.60;;;;;;5038702;28;20087;-67
2023/07/18 01:54:40;;;;;;;12.93;3.77;;;13.30;94.00;;;;;;5032083;28;20132;-67
2023/07/18 01:57:06;;;;;;;13.73;4.00;;;13.30;93.80;;;;;;5049915;28;20059;-67
2023/07/18 01:59:32;;;;;;;15.53;4.70;;;13.30;94.00;;;;;;5033235;28;20132;-67
2023/07/18 02:01:58;;;;;;;16.10;4.00;;;13.30;94.60;;;;;;5043709;28;20036;-67
2023/07/18 02:04:23;;;;;;;12.70;4.17;;;13.40;94.50;;;;;;5023245;28;20041;-67
2023/07/18 02:06:51;;;;;;;14.60;4.13;;;13.40;94.30;;;;;;5043614;28;20037;-67
2023/07/18 02:09:17;;;;;;;13.30;4.13;;;13.40;94.40;;;;;;5040816;28;20040;-67
2023/07/18 02:11:42;;;;;;;17.23;5.10;;;13.50;94.40;;;;;;5036032;28;20667;-67
2023/07/18 02:14:08;;;;;;;15.57;4.50;;;13.50;94.50;;;;;;5038856;28;20091;-67
2023/07/18 02:16:34;;;;;;;12.77;3.90;;;13.50;94.60;;;;;;5042602;28;20048;-67
2023/07/18 02:19:01;;;;;;;16.03;4.43;;;13.50;94.50;;;;;;5027623;28;20567;-67
2023/07/18 02:21:28;;;;;;;14.03;4.30;;;13.50;94.40;;;;;;5041649;28;20049;-67
2023/07/18 02:23:53;;;;;;;15.90;4.77;;;13.50;94.90;;;;;;5038185;28;20284;-67
2023/07/18 02:26:19;;;;;;;12.23;4.77;;;13.50;95.10;;;;;;5049112;28;20283;-67
2023/07/18 02:28:45;;;;;;;13.07;3.90;;;13.60;95.20;;;;;;5046665;28;20513;-67
2023/07/18 02:31:10;;;;;;;15.67;4.20;;;13.60;95.20;;;;;;5046273;28;20037;-67
2023/07/18 02:33:36;;;;;;;15.00;4.67;;;13.60;95.20;;;;;;5021783;28;20037;-67
2023/07/18 02:36:03;;;;;;;13.27;4.30;;;13.60;95.20;;;;;;5039627;28;20079;-67
2023/07/18 02:38:28;;;;;;;14.83;4.70;;;13.60;95.40;;;;;;5041713;28;20116;-67
2023/07/18 02:40:54;;;;;;;15.80;4.40;;;13.60;95.40;;;;;;5040132;28;20741;-67
2023/07/18 02:43:20;;;;;;;15.03;4.27;;;13.60;95.50;;;;;;5032608;28;20042;-67
2023/07/18 02:45:45;;;;;;;14.77;4.20;;;13.60;95.50;;;;;;5044961;28;20045;-67
2023/07/18 02:48:11;;;;;;;17.33;4.63;;;13.50;95.30;;;;;;5054022;28;20037;-67
2023/07/18 02:50:37;;;;;;;12.03;4.60;;;13.50;95.20;;;;;;5042548;28;20052;-67
2023/07/18 02:53:03;;;;;;;16.17;4.43;;;13.50;95.30;;;;;;5032999;28;20441;-67
2023/07/18 02:55:28;;;;;;;8.77;4.20;;;13.40;95.40;;;;;;5007517;28;20048;-67
2023/07/18 02:57:54;;;;;;;13.10;4.20;;;13.40;95.60;;;;;;5015432;28;20523;-67
2023/07/18 03:00:25;;;;;;;15.13;4.57;;;13.40;95.80;;;;;;5011240;28;20575;-67
2023/07/18 03:02:52;;;;;;;16.17;5.17;;;13.40;95.90;;;;;;5013463;28;20280;-67
2023/07/18 03:05:19;;;;;;;19.90;5.83;;;13.40;96.00;;;;;;5008475;28;20847;-67
2023/07/18 03:07:46;;;;;;;18.07;5.03;;;13.40;96.10;;;;;;5018092;28;20826;-67
2023/07/18 03:10:13;;;;;;;19.50;5.20;;;13.50;96.50;;;;;;5010921;28;20289;-67
2023/07/18 03:12:40;;;;;;;15.37;5.13;;;13.50;96.30;;;;;;5000179;28;20350;-67
2023/07/18 03:15:09;;;;;;;20.43;5.40;;;13.50;96.30;;;;;;5013530;28;20315;-67
2023/07/18 03:17:36;;;;;;;17.00;5.10;;;13.50;96.70;;;;;;5014973;28;20284;-67
2023/07/18 03:20:10;;;;;;;17.37;5.33;;;13.50;96.90;;;;;;4999163;28;20288;-67
2023/07/18 03:22:36;;;;;;;21.00;4.93;;;13.50;97.00;;;;;;4991010;28;20284;-67
2023/07/18 03:25:07;;;;;;;18.33;5.00;;;13.50;96.90;;;;;;4996605;28;20451;-67
2023/07/18 03:27:33;;;;;;;13.83;4.90;;;13.50;96.80;;;;;;5007980;28;20623;-67
2023/07/18 03:29:59;;;;;;;13.07;4.30;;;13.50;96.80;;;;;;5009479;28;20285;-67
2023/07/18 03:32:25;;;;;;;16.47;4.87;;;13.40;96.80;;;;;;4998643;28;20292;-67
2023/07/18 03:34:51;;;;;;;14.83;4.93;;;13.40;97.00;;;;;;5011208;28;20049;-67
2023/07/18 03:37:17;;;;;;;10.90;4.17;;;13.40;96.90;;;;;;4995123;28;20291;-67
2023/07/18 03:39:42;;;;;;;22.30;5.40;;;13.40;97.10;;;;;;4999690;28;20465;-67
2023/07/18 03:42:08;;;;;;;13.43;4.37;;;13.40;97.10;;;;;;5006063;28;20048;-67
2023/07/18 03:44:34;;;;;;;12.80;4.43;;;13.40;97.20;;;;;;4995143;28;20042;-67
2023/07/18 03:47:00;;;;;;;14.10;4.57;;;13.50;97.20;;;;;;5004909;28;20045;-67
2023/07/18 03:49:25;;;;;;;13.13;4.43;;;13.50;97.30;;;;;;5017223;28;20034;-67
2023/07/18 03:51:51;;;;;;;15.33;4.27;;;13.50;97.40;;;;;;5013460;28;20041;-67
2023/07/18 03:54:17;;;;;;;12.60;4.43;;;13.50;97.30;;;;;;5014058;28;20461;-67
2023/07/18 03:56:42;;;;;;;11.27;3.90;;;13.50;97.30;;;;;;5046926;28;20055;-67
2023/07/18 03:59:08;;;;;;;17.37;4.77;;;13.60;97.30;;;;;;5046077;28;20365;-68
2023/07/18 04:01:34;;;;;;;13.37;4.40;;;13.60;97.40;;;;;;5045243;28;20311;-68
2023/07/18 04:03:59;;;;;;;15.40;5.33;;;13.60;97.50;;;;;;5027594;28;20076;-67
2023/07/18 04:06:25;;;;;;;17.60;4.63;;;13.70;97.80;;;;;;5047947;28;20044;-67
2023/07/18 04:08:50;;;;;;;17.93;4.77;;;13.80;97.80;;;;;;5045489;28;20075;-67
2023/07/18 04:11:16;;;;;;;16.43;4.17;;;13.90;97.80;;;;;;5043214;28;20071;-67
2023/07/18 04:13:42;;;;;;;18.43;4.93;;;14.00;98.00;;;;;;5029035;28;20084;-67
2023/07/18 04:16:08;;;;;;;17.37;4.60;;;14.10;97.90;;;;;;5043196;28;20092;-67
2023/07/18 04:18:34;;;;;;;16.77;4.80;;;14.20;98.00;;;;;;5030295;28;20131;-68
2023/07/18 04:21:01;;;;;;;16.07;3.97;;;14.20;97.90;;;;;;5050303;28;20095;-68
2023/07/18 04:23:27;;;;;;;16.43;4.60;;;14.30;97.90;;;;;;5048225;28;20378;-68
2023/07/18 04:25:55;;;;;;;20.00;5.17;;;14.30;97.80;;;;;;5046341;28;21020;-68
2023/07/18 04:28:21;;;;;;;25.00;5.53;;;14.40;97.90;;;;;;5032395;28;20312;-68
2023/07/18 04:30:47;;;;;;;17.93;5.10;;;14.50;98.10;;;;;;5044148;28;20319;-68
2023/07/18 04:33:12;;;;;;;22.77;6.10;;;14.50;98.40;;;;;;5033272;28;20044;-68
2023/07/18 04:35:39;;;;;;;18.80;5.17;;;14.60;98.50;;;;;;5039148;28;20055;-68
2023/07/18 04:38:06;;;;;;;17.57;4.60;;;14.70;98.60;;;;;;5041711;28;20124;-68
2023/07/18 04:40:32;;;;;;;19.57;5.47;;;14.80;98.50;;;;;;5042145;28;20708;-68
2023/07/18 04:42:58;;;;;;;15.87;5.20;;;14.80;98.50;;;;;;5033227;28;20294;-68
2023/07/18 04:45:23;;;;;;;13.87;4.20;;;14.90;98.50;;;;;;5033567;28;20324;-68
2023/07/18 04:47:49;;;;;;;14.53;4.57;;;15.00;98.40;;;;;;5042512;28;20043;-68
2023/07/18 04:50:15;;;;;;;21.60;5.03;;;15.00;98.40;;;;;;5041907;28;20082;-68
2023/07/18 04:52:40;;;;;;;18.53;5.17;;;15.10;98.30;;;;;;5043187;28;20152;-68
2023/07/18 04:55:06;;;;;;;26.03;5.50;;;15.20;98.40;;;;;;5022642;28;20064;-68
2023/07/18 04:57:34;;;;;;;16.33;4.90;;;15.30;98.40;;;;;;5040679;28;20045;-68
2023/07/18 05:00:00;;;;;;;21.47;4.87;;;15.40;98.50;;;;;;5036190;28;20303;-68
2023/07/18 05:02:25;;;;;;;16.63;5.23;;;15.60;98.60;;;;;;5043115;28;20996;-68
2023/07/18 05:04:51;;;;;;;28.40;5.80;;;15.90;98.80;;;;;;5032407;28;20402;-68
2023/07/18 05:07:17;;;;;;;18.67;4.70;;;16.30;99.20;;;;;;5038688;28;20098;-68
2023/07/18 05:09:43;;;;;;;18.97;4.83;;;16.80;99.30;;;;;;5035860;28;20068;-68
2023/07/18 05:12:09;;;;;;;19.07;6.00;;;17.20;98.30;;;;;;5039088;28;20044;-68
2023/07/18 05:14:35;;;;;;;22.73;4.87;;;17.40;97.10;;;;;;5039690;28;20296;-68
2023/07/18 05:17:01;;;;;;;22.60;5.50;;;17.50;96.00;;;;;;5038623;28;20206;-68
2023/07/18 05:19:26;;;;;;;20.17;5.30;;;17.50;95.50;;;;;;5043284;28;20455;-68
2023/07/18 05:21:52;;;;;;;23.13;5.47;;;17.60;95.10;;;;;;5035814;28;20238;-68
2023/07/18 05:24:17;;;;;;;18.80;4.80;;;17.70;95.00;;;;;;5036047;28;20050;-70
2023/07/18 05:26:43;;;;;;;20.97;5.37;;;17.80;94.80;;;;;;5038123;28;20033;-69
2023/07/18 05:29:09;;;;;;;20.20;5.43;;;17.90;94.30;;;;;;5037087;28;20041;-67
2023/07/18 05:31:35;;;;;;;22.20;6.30;;;18.30;94.80;;;;;;5022318;28;20052;-69
2023/07/18 05:34:00;;;;;;;20.20;5.57;;;18.70;94.00;;;;;;5042684;28;20134;-68
2023/07/18 05:36:26;;;;;;;18.93;5.37;;;19.00;92.90;;;;;;5039909;28;20065;-69
2023/07/18 05:38:52;;;;;;;22.20;5.53;;;19.20;92.10;;;;;;5045778;28;20492;-68
2023/07/18 05:41:17;;;;;;;23.50;7.10;;;19.20;91.90;;;;;;5049019;28;20028;-67
2023/07/18 05:43:43;;;;;;;21.83;5.50;;;19.10;91.50;;;;;;5042727;28;20598;-67
2023/07/18 05:46:10;;;;;;;22.70;6.03;;;19.20;91.80;;;;;;5034607;28;20701;-67
2023/07/18 05:48:35;;;;;;;21.37;5.83;;;19.20;91.40;;;;;;5021485;28;20037;-68
2023/07/18 05:51:02;;;;;;;21.20;5.90;;;19.20;91.00;;;;;;5037566;28;20282;-67
2023/07/18 05:53:28;;;;;;;16.70;5.50;;;19.10;90.50;;;;;;5032225;28;20111;-67
2023/07/18 05:55:54;;;;;;;21.93;6.43;;;18.80;90.40;;;;;;5028839;28;20283;-67
2023/07/18 05:58:19;;;;;;;23.87;7.03;;;18.70;90.70;;;;;;5048285;28;20041;-67
2023/07/18 06:00:45;;;;;;;21.93;6.50;;;18.80;91.90;;;;;;5047826;28;20049;-68
2023/07/18 06:03:12;;;;;;;22.00;6.57;;;19.20;91.40;;;;;;5048073;28;20110;-67
2023/07/18 06:05:37;;;;;;;24.57;6.80;;;19.50;90.50;;;;;;5031135;28;20412;-67
2023/07/18 06:08:05;;;;;;;20.80;7.23;;;19.80;90.00;;;;;;5053772;28;20041;-67
2023/07/18 06:10:31;;;;;;;20.07;7.17;;;19.90;89.30;;;;;;5025950;28;20041;-67
2023/07/18 06:12:56;;;;;;;20.37;6.37;;;20.00;89.30;;;;;;5028708;28;20029;-67
2023/07/18 06:15:22;;;;;;;18.73;7.53;;;20.20;89.00;;;;;;5032090;28;20040;-68
2023/07/18 06:17:48;;;;;;;23.07;7.37;;;20.40;87.70;;;;;;5052511;28;20045;-68
2023/07/18 06:20:14;;;;;;;21.83;6.87;;;20.60;88.20;;;;;;5036042;28;20055;-68
2023/07/18 06:22:44;;;;;;;23.50;6.37;;;20.90;87.20;;;;;;5047686;28;20123;-68
2023/07/18 06:25:10;;;;;;;19.33;4.90;;;21.30;86.10;;;;;;5043788;28;20045;-68
2023/07/18 06:27:37;;;;;;;14.80;4.43;;;21.30;81.20;;;;;;5047637;28;20048;-67
2023/07/18 06:30:03;;;;;;;20.27;4.77;;;21.00;80.10;;;;;;5052583;28;20104;-67
2023/07/18 06:32:30;;;;;;;24.17;4.63;;;20.50;80.00;;;;;;5030901;28;20055;-67
2023/07/18 06:34:55;;;;;;;18.97;4.70;;;19.90;81.30;;;;;;5036337;28;20049;-67
2023/07/18 06:37:21;;;;;;;18.23;4.73;;;19.60;82.50;;;;;;5038875;28;20036;-67
2023/07/18 06:39:50;;;;;;;19.10;5.43;;;19.30;83.70;;;;;;5036010;28;20124;-67
2023/07/18 06:42:16;;;;;;;13.83;4.90;;;19.10;84.70;;;;;;5034094;28;20517;-67
2023/07/18 06:44:42;;;;;;;16.23;5.63;;;19.10;85.60;;;;;;5020229;28;20484;-67
2023/07/18 06:47:07;;;;;;;14.77;4.83;;;19.10;86.20;;;;;;5018584;28;20120;-67
2023/07/18 06:49:33;;;;;;;14.97;5.17;;;19.30;86.80;;;;;;5037024;28;20040;-67
2023/07/18 06:51:59;;;;;;;15.67;5.07;;;20.00;86.80;;;;;;5040801;28;20471;-67
2023/07/18 06:54:24;;;;;;;13.13;4.77;;;20.90;84.50;;;;;;5025460;28;20060;-67
2023/07/18 06:56:50;;;;;;;14.57;4.90;;;21.20;82.10;;;;;;5037208;28;20137;-67
2023/07/18 06:59:16;;;;;;;15.23;5.03;;;21.30;81.50;;;;;;5046500;28;20037;-67
2023/07/18 07:01:42;;;;;;;14.30;4.87;;;21.50;81.60;;;;;;5047444;28;20033;-67
2023/07/18 07:04:08;;;;;;;18.03;5.87;;;21.50;80.50;;;;;;5046480;28;20049;-67
2023/07/18 07:06:41;;;;;;;20.97;5.20;;;21.30;80.00;;;;;;5045552;28;20041;-67
2023/07/18 07:09:07;;;;;;;16.37;4.63;;;21.40;80.40;;;;;;5047245;28;20068;-67
2023/07/18 07:11:34;;;;;;;18.43;5.77;;;21.80;79.80;;;;;;5039957;28;20032;-67
2023/07/18 07:13:59;;;;;;;14.53;4.90;;;22.10;78.90;;;;;;5029555;28;20250;-67
2023/07/18 07:16:25;;;;;;;10.20;3.60;;;22.10;78.30;;;;;;5035279;28;20064;-67
2023/07/18 07:18:51;;;;;;;9.47;3.70;;;22.00;78.50;;;;;;5047821;28;20036;-67
2023/07/18 07:21:16;;;;;;;9.77;3.30;;;22.00;78.10;;;;;;5036295;28;20056;-67
2023/07/18 07:23:42;;;;;;;8.47;3.87;;;21.90;78.50;;;;;;5022152;28;20045;-68
2023/07/18 07:26:08;;;;;;;8.40;3.33;;;22.00;78.40;;;;;;5039866;28;20044;-67
2023/07/18 07:28:35;;;;;;;9.60;3.77;;;22.10;78.00;;;;;;5034081;28;20472;-67
2023/07/18 07:31:03;;;;;;;9.80;3.13;;;22.10;76.70;;;;;;5041561;28;20036;-67
2023/07/18 07:33:29;;;;;;;12.17;3.50;;;22.00;76.20;;;;;;5034627;28;20045;-67
2023/07/18 07:35:54;;;;;;;11.90;3.50;;;21.90;76.30;;;;;;5040691;28;20043;-67
2023/07/18 07:38:20;;;;;;;11.33;3.20;;;21.80;76.20;;;;;;5038721;28;20036;-67
2023/07/18 07:40:46;;;;;;;9.43;2.73;;;21.70;76.30;;;;;;5042577;28;20040;-67
2023/07/18 07:43:11;;;;;;;10.70;2.77;;;21.70;76.10;;;;;;5038571;28;20040;-67
2023/07/18 07:45:37;;;;;;;10.33;2.73;;;21.70;76.20;;;;;;5037339;28;20041;-67
2023/07/18 07:48:03;;;;;;;8.73;3.00;;;21.80;75.10;;;;;;5054077;28;20077;-68
2023/07/18 07:50:32;;;;;;;9.60;2.70;;;22.00;75.40;;;;;;5044299;28;20072;-68
2023/07/18 07:52:58;;;;;;;11.57;3.03;;;22.20;75.20;;;;;;5047410;28;20045;-68
2023/07/18 07:55:24;;;;;;;9.13;3.10;;;22.20;74.30;;;;;;5027577;28;20090;-68
2023/07/18 07:57:50;;;;;;;10.90;2.73;;;22.20;74.60;;;;;;5055095;28;20037;-68
2023/07/18 08:00:16;;;;;;;10.87;3.00;;;22.30;73.90;;;;;;5033047;28;20041;-68
2023/07/18 08:02:41;;;;;;;8.27;2.33;;;22.40;73.50;;;;;;5049942;28;20055;-68
2023/07/18 08:05:08;;;;;;;10.17;2.73;;;22.60;72.00;;;;;;5048961;28;20120;-68
2023/07/18 08:07:33;;;;;;;13.80;2.43;;;22.60;72.00;;;;;;5046874;28;20101;-68
2023/07/18 08:09:59;;;;;;;12.50;2.40;;;22.60;70.00;;;;;;5040122;28;20045;-68
2023/07/18 08:12:25;;;;;;;10.53;2.33;;;22.60;70.90;;;;;;5039016;28;20038;-68
2023/07/18 08:14:51;;;;;;;9.43;1.83;;;22.60;70.50;;;;;;5025715;28;20065;-68
2023/07/18 08:17:17;;;;;;;10.37;2.00;;;22.50;69.80;;;;;;5046600;28;20063;-68
2023/07/18 08:19:43;;;;;;;8.43;1.80;;;22.30;69.80;;;;;;5022895;28;20583;-68
2023/07/18 08:22:09;;;;;;;13.63;2.17;;;22.30;70.10;;;;;;5039299;28;20037;-68
2023/07/18 08:24:34;;;;;;;6.37;1.63;;;22.30;70.10;;;;;;5044823;28;20093;-68
2023/07/18 08:27:00;;;;;;;10.50;2.07;;;22.30;69.80;;;;;;5027629;28;20033;-68
2023/07/18 08:29:32;;;;;;;8.43;2.63;;;22.20;69.70;;;;;;5045877;28;20533;-68
2023/07/18 08:31:58;;;;;;;9.10;2.30;;;22.00;70.40;;;;;;5048431;28;20052;-68
2023/07/18 08:34:24;;;;;;;9.67;2.57;;;21.80;70.80;;;;;;5045800;28;20090;-68
2023/07/18 08:36:50;;;;;;;10.13;2.70;;;21.60;71.60;;;;;;5042955;28;20549;-68
2023/07/18 08:39:16;;;;;;;8.87;2.73;;;21.40;72.50;;;;;;5042384;28;20500;-68
2023/07/18 08:41:49;;;;;;;8.83;2.30;;;21.40;73.40;;;;;;5021653;28;20079;-68
2023/07/18 08:44:16;;;;;;;10.80;2.83;;;21.50;74.20;;;;;;5032615;28;20532;-68
2023/07/18 08:46:47;;;;;;;9.53;2.67;;;21.80;74.10;;;;;;5046116;28;20029;-68
2023/07/18 08:49:14;;;;;;;11.30;2.57;;;21.90;73.40;;;;;;5055270;28;20396;-68
2023/07/18 08:51:43;;;;;;;14.47;3.37;;;22.10;73.10;;;;;;5039828;28;20037;-68
2023/07/18 08:54:10;;;;;;;8.30;2.07;;;22.30;72.20;;;;;;5029589;28;20377;-68
2023/07/18 08:56:41;;;;;;;7.67;2.20;;;22.50;71.40;;;;;;5029488;28;20087;-68
2023/07/18 08:59:07;;;;;;;7.90;2.03;;;22.70;70.40;;;;;;5018885;28;20037;-68
2023/07/18 09:01:33;;;;;;;6.73;1.63;;;22.90;69.90;;;;;;5038027;28;20554;-68
2023/07/18 09:03:59;;;;;;;8.33;1.60;;;22.90;68.40;;;;;;5032573;28;20075;-68
2023/07/18 09:06:25;;;;;;;5.13;1.63;;;22.90;67.60;;;;;;5024741;28;20036;-68
2023/07/18 09:08:54;;;;;;;7.90;2.10;;;23.10;67.50;;;;;;5042149;28;20045;-68
2023/07/18 09:11:21;;;;;;;9.73;2.03;;;23.20;67.10;;;;;;5036565;28;20280;-68
2023/07/18 09:13:47;;;;;;;6.63;2.17;;;23.40;67.20;;;;;;5041253;28;20048;-68
2023/07/18 09:16:20;;;;;;;9.43;2.20;;;23.40;66.50;;;;;;5041911;28;20179;-68
2023/07/18 09:18:51;;;;;;;11.57;2.90;;;23.40;65.50;;;;;;5047919;28;20377;-68
2023/07/18 09:21:17;;;;;;;15.33;2.90;;;23.50;65.30;;;;;;5046807;28;20049;-68
2023/07/18 09:23:44;;;;;;;12.83;2.97;;;23.50;66.00;;;;;;5038876;28;20042;-68
2023/07/18 09:26:12;;;;;;;8.67;2.50;;;23.60;65.90;;;;;;5028065;28;20103;-68
2023/07/18 09:28:41;;;;;;;12.77;3.40;;;23.60;65.30;;;;;;5038042;28;21148;-68
2023/07/18 09:31:17;;;;;;;11.97;3.13;;;23.50;65.00;;;;;;5044900;28;20523;-68
2023/07/18 09:33:44;;;;;;;13.03;3.40;;;23.20;65.40;;;;;;5037072;28;20406;-68
2023/07/18 09:36:21;;;;;;;7.33;2.37;;;23.10;65.80;;;;;;5043473;28;20056;-68
2023/07/18 09:38:48;;;;;;;12.80;2.37;;;23.10;65.40;;;;;;5047717;28;20068;-68
2023/07/18 09:41:21;;;;;;;9.60;3.03;;;23.10;66.30;;;;;;5051616;28;20412;-68
2023/07/18 09:43:47;;;;;;;11.63;3.10;;;23.20;66.00;;;;;;5026536;28;20047;-68
2023/07/18 09:46:17;;;;;;;11.60;3.20;;;23.10;65.80;;;;;;5042411;28;20037;-68
2023/07/18 09:48:45;;;;;;;11.43;3.53;;;23.10;66.20;;;;;;5032298;28;20121;-68
2023/07/18 09:51:14;;;;;;;9.63;3.27;;;23.10;66.00;;;;;;5029463;28;20119;-68
2023/07/18 09:53:45;;;;;;;8.27;2.73;;;23.00;66.20;;;;;;5041216;28;20057;-68
2023/07/18 09:56:16;;;;;;;8.47;2.80;;;22.80;66.10;;;;;;5009408;28;20067;-68
2023/07/18 09:58:48;;;;;;;7.53;2.40;;;22.80;66.80;;;;;;5008071;28;20126;-68
2023/07/18 10:01:20;;;;;;;12.47;2.97;;;22.70;66.50;;;;;;5006926;28;20124;-68
2023/07/18 10:03:49;;;;;;;7.87;3.37;;;22.60;66.40;;;;;;4999125;28;20038;-68
2023/07/18 10:06:15;;;;;;;10.13;3.17;;;22.60;66.40;;;;;;4996469;28;20137;-68
2023/07/18 10:08:44;;;;;;;9.17;2.50;;;22.70;66.70;;;;;;5005237;28;20045;-68
2023/07/18 10:11:11;;;;;;;7.60;2.20;;;22.80;67.10;;;;;;5009353;28;20065;-68
2023/07/18 10:13:55;;;;;;;11.40;2.60;;;23.00;67.00;;;;;;4991537;28;20046;-68
2023/07/18 10:16:23;;;;;;;12.15;2.63;;;23.20;65.60;;;;;;5001130;28;20099;-68
2023/07/18 10:18:50;;;;;;;9.77;2.77;;;23.10;65.30;;;;;;5009051;28;20041;-68
2023/07/18 10:21:37;;;;;;;9.40;2.60;;;23.00;65.30;;;;;;5009139;28;20050;-68
2023/07/18 10:24:23;;;;;;;7.70;3.07;;;22.60;64.00;;;;;;5005908;28;20053;-68
2023/07/18 10:26:52;;;;;;;12.07;3.33;;;22.40;65.60;;;;;;4986883;28;20046;-68
2023/07/18 10:29:18;;;;;;;8.57;2.97;;;22.10;66.00;;;;;;5007911;28;20048;-68
2023/07/18 10:31:44;;;;;;;10.13;2.70;;;22.00;67.00;;;;;;5002688;28;20037;-68
2023/07/18 10:34:11;;;;;;;12.00;2.90;;;22.10;67.10;;;;;;4984912;28;20473;-68
2023/07/18 10:36:38;;;;;;;9.47;2.53;;;22.10;66.00;;;;;;4999553;28;20037;-68
2023/07/18 10:39:14;;;;;;;8.13;2.13;;;22.00;66.40;;;;;;4982661;28;20041;-68
2023/07/18 10:41:44;;;;;;;8.43;2.40;;;22.00;66.20;;;;;;5000799;28;20033;-68
2023/07/18 10:44:12;;;;;;;9.10;2.53;;;22.00;65.40;;;;;;4998843;28;20041;-68
2023/07/18 10:46:39;;;;;;;9.03;2.60;;;21.90;66.00;;;;;;5001569;28;20128;-68
2023/07/18 10:49:05;;;;;;;8.77;2.63;;;21.90;66.40;;;;;;5004702;28;20067;-68
2023/07/18 10:51:34;;;;;;;8.50;2.87;;;21.90;66.60;;;;;;4998491;28;20095;-68
2023/07/18 10:54:00;;;;;;;8.80;3.00;;;22.00;67.00;;;;;;5007522;28;20684;-68
2023/07/18 10:56:27;;;;;;;8.37;2.80;;;21.90;67.20;;;;;;5030764;28;20049;-68
2023/07/18 10:58:55;;;;;;;7.60;3.00;;;21.80;67.60;;;;;;5028325;28;20057;-68
2023/07/18 11:01:23;;;;;;;9.23;2.70;;;21.70;67.20;;;;;;5032689;28;20533;-68
2023/07/18 11:03:49;;;;;;;11.23;2.87;;;21.60;67.90;;;;;;5029225;28;20109;-68
2023/07/18 11:06:15;;;;;;;9.03;2.57;;;21.60;67.80;;;;;;5042529;28;20045;-68
2023/07/18 11:08:45;;;;;;;8.80;2.57;;;21.60;67.00;;;;;;5022812;28;20044;-68
2023/07/18 11:11:11;;;;;;;9.47;2.47;;;21.50;67.60;;;;;;5024289;28;20504;-68
2023/07/18 11:13:39;;;;;;;12.27;2.93;;;21.60;67.50;;;;;;5039147;28;20499;-68
2023/07/18 11:16:18;;;;;;;10.03;2.50;;;21.60;67.50;;;;;;5025876;28;20037;-68
2023/07/18 11:18:44;;;;;;;8.87;2.10;;;21.60;67.30;;;;;;5045002;28;20049;-68
2023/07/18 11:21:11;;;;;;;9.53;2.37;;;21.50;67.30;;;;;;5041339;28;20048;-68
2023/07/18 11:23:38;;;;;;;8.63;2.47;;;21.60;67.90;;;;;;5047595;28;20037;-68
2023/07/18 11:26:15;;;;;;;11.57;2.40;;;21.70;67.90;;;;;;5043781;28;20475;-68
2023/07/18 11:28:43;;;;;;;8.37;2.47;;;21.90;67.80;;;;;;5044807;28;20124;-68
2023/07/18 11:31:29;;;;;;;7.60;2.07;;;22.00;67.60;;;;;;5018576;28;20044;-68
2023/07/18 11:34:05;;;;;;;8.37;2.50;;;22.10;68.00;;;;;;5033812;28;20033;-68
2023/07/18 11:36:33;;;;;;;9.80;2.93;;;22.20;67.90;;;;;;5032001;28;20509;-68
2023/07/18 11:39:01;;;;;;;14.03;3.53;;;22.30;67.90;;;;;;5043455;28;20103;-68
2023/07/18 11:41:40;;;;;;;10.43;2.63;;;22.50;68.20;;;;;;5021055;28;20044;-68
2023/07/18 11:44:08;;;;;;;11.83;2.37;;;22.90;67.60;;;;;;5039119;28;20052;-68
2023/07/18 11:46:44;;;;;;;12.93;2.90;;;23.10;66.40;;;;;;5040187;28;20087;-68
2023/07/18 11:49:16;;;;;;;10.33;3.33;;;23.20;65.00;;;;;;5046476;28;20033;-68
2023/07/18 11:51:42;;;;;;;11.97;2.50;;;23.20;64.90;;;;;;5032434;28;20518;-68
2023/07/18 11:54:08;;;;;;;10.37;2.73;;;23.50;65.10;;;;;;5038814;28;20050;-70
2023/07/18 11:56:35;;;;;;;9.30;2.20;;;24.00;64.80;;;;;;5046034;28;20464;-70
2023/07/18 11:59:01;;;;;;;8.00;1.93;;;24.40;63.10;;;;;;5032707;28;20045;-70
2023/07/18 12:01:27;;;;;;;6.63;1.90;;;24.60;63.20;;;;;;5033205;28;20037;-69
2023/07/18 12:03:54;;;;;;;9.70;2.00;;;24.70;58.50;;;;;;5048704;28;20037;-70
2023/07/18 12:06:21;;;;;;;6.37;1.33;;;24.70;58.70;;;;;;5040753;28;20080;-69
2023/07/18 12:08:48;;;;;;;7.23;1.40;;;24.70;57.90;;;;;;5042566;28;20103;-69
2023/07/18 12:11:14;;;;;;;10.00;2.00;;;24.80;57.80;;;;;;5028523;28;20041;-69
2023/07/18 12:13:40;;;;;;;3.73;1.23;;;25.20;58.80;;;;;;5047986;28;20427;-70
2023/07/18 12:16:06;;;;;;;5.67;1.03;;;25.40;57.40;;;;;;5030677;28;20051;-70
2023/07/18 12:18:32;;;;;;;4.50;0.90;;;25.60;56.70;;;;;;5044300;28;20485;-70
2023/07/18 12:20:58;;;;;;;5.23;1.00;;;25.70;55.20;;;;;;5048137;28;20052;-69
2023/07/18 12:23:23;;;;;;;6.10;1.03;;;25.80;54.70;;;;;;5042939;28;20045;-69
2023/07/18 12:25:49;;;;;;;8.50;1.70;;;25.90;53.60;;;;;;5025639;28;20249;-69
2023/07/18 12:28:15;;;;;;;5.40;1.47;;;25.90;54.70;;;;;;5040317;28;20033;-70
2023/07/18 12:30:41;;;;;;;4.07;1.20;;;25.90;54.60;;;;;;5043779;28;20037;-70
2023/07/18 12:33:08;;;;;;;3.00;0.80;;;26.00;52.30;;;;;;5036524;28;20068;-69
2023/07/18 12:35:33;;;;;;;3.50;1.17;;;26.10;53.60;;;;;;5045653;28;20313;-69
2023/07/18 12:37:59;;;;;;;6.00;1.10;;;26.20;52.00;;;;;;5046928;28;20041;-69
2023/07/18 12:40:25;;;;;;;2.73;0.90;;;26.40;51.80;;;;;;5032442;28;20040;-69